BIENVENIDO A Fly Ecuador Virtual

Fly Ecuador Virtual es una organización creada con el fin de brindar una plataforma que permita a los pilotos virtuales, principalmente ecuatorianos, tener un lugar donde registrar sus horas de vuelo, sus certificados de conocimiento adquiridos, las rutas que han volado y los destinos que han visitado. Así mismo, se busca ayudar a todos los pilotos a expandir su conocimiento sobre el mundo de la aviación real y virtual por medio de publicaciones, foros y cursos en línea.

A diferencia de las aerolíneas virtuales tradicionales, Fly Ecuador Virtual no simula las operaciones de una aerolínea del mundo real en específico. Un miembro de Fly Ecuador Virtual tiene toda la libertad de volar cualquier aeronave que opere en el espacio aéreo ecuatoriano real, en cualquier ruta, sea esta nacional o internacional, IFR o VFR, aeronaves monomotor, multimotor o helicópteros. Todo esto con el objetivo de expandir las operaciones virtuales dentro del espacio aéreo ecuatoriano, creando una comunidad en la que se compartan conocimientos y experiencias que beneficien a todos sus integrantes.

El crecimiento de Fly Ecuador Virtual depende de la participación conjunta de todos sus miembros, por este motivo se incentiva la participación en línea a través de los diferentes medios descritos más adelante en este sitio web.

 ESTADÍSTICAS

Pilotos 77
Aeronaves en flota 0
Rutas 0
Horas totales: 10512.00
Vuelos totales 1677
Vuelos Regular 0
Vuelos Charter 1724
% Vuelos Regular 0.00 %

 ÚLTIMOS VUELOS

IndicativoPilotoOrigenDestinoFechaTiempo de vuelo
ECU024Arturo Carvajal  SEQM  SERO 2018-10-14 0.88
ECU070Luis Jaramillo  SPJC  SEGU 2018-09-30 1.48
ECU070Luis Jaramillo  SEGU  SPJC 2018-09-29 1.82
ECU070Luis Jaramillo  SKCL  SEGU 2018-09-16 1.24
ECU024Arturo Carvajal  SEGU  SEQM 2018-09-16 0.54

 NUEVOS PILOTOS

 Consultar METAR

METAR
SEGU - José Joaquín de Olmedo International Airport, Guayaquil, ECU
Distance from station: N 0mi, 0km
Updated: Tue, 23-Oct-2018 6:00am PDT
Overcast
Overcast
 Wind from SW
Wind: SW 7 mph , 11 km/h
Temperature: 73°F , 23°C
Dew Point: 66°F , 19°C
Humidity: 78%
Barometer: 29.91 inHg , 1013 hPa
Clouds: Overcast
Visibility: 6 miles , 10 km
Cloud details: Partly Cloudy 3300 ft
Overcast 10000 ft
2018/10/23 13:00 SEGU 231300Z 22006KT 9999 SCT033 OVC100 23/19 Q1013 NOSIG RMK A2993
 
SEQM - Aeropuerto Internacional Mariscal Sucre, ECU
Distance from station: NE 120mi, 200km
Updated: Tue, 23-Oct-2018 6:00am PDT
Mostly Cloudy
Mostly Cloudy
 Wind from SW
Wind: SW 3 mph , 6 km/h
Temperature: 55°F , 13°C
Dew Point: 50°F , 10°C
Humidity: 82%
Barometer: 30.36 inHg , 1028 hPa
Clouds: Mostly Cloudy
Visibility: 6 miles , 10 km
Cloud details: Few Clouds 10000 ft
Mostly Cloudy 30000 ft
2018/10/23 13:00 SEQM 231300Z 22003KT 150V240 9999 FEW100 BKN300 13/10 Q1028 NOSIG RMK A3036
 
SECU - Mariscal Lamar Airpor, ECU
Distance from station: ENE 80mi, 120km
Updated: Tue, 23-Oct-2018 6:00am PDT
Few Clouds
Few Clouds
 Wind from SW
Wind: SW 2 mph , 4 km/h
Temperature: 54°F , 12°C
Dew Point: 46°F , 8°C
Humidity: 77%
Barometer: 30.33 inHg , 1027 hPa
Clouds: Few Clouds
Visibility: 6 miles , 10 km
Cloud details: Few Clouds 3000 ft
2018/10/23 13:00 SECU 231300Z 23002KT 9999 FEW030 12/08 Q1027
 
SELT - Cotopaxi International Airport, ECU
Distance from station: NW 21mi, 34km
Updated: Tue, 23-Oct-2018 6:00am PDT
Clear
Clear
 Wind from NNE
Wind: NNE 5 mph , 7 km/h
Temperature: 50°F , 10°C
Wind Chill: 48°F , 9°C
Dew Point: 37°F , 3°C
Humidity: 62%
Barometer: 30.45 inHg , 1031 hPa
Summary: Clear
Visibility: greater than 7 miles , 10 km
2018/10/23 13:00 SELT 231300Z 02004KT CAVOK 10/03 Q1031
 
SEMT - Eloy Alfaro International Airport, ECU
Distance from station: SSE 70mi, 100km
Updated: Tue, 23-Oct-2018 6:00am PDT
Overcast
Overcast
 Wind from SSW
Wind: SSW 7 mph , 11 km/h
Temperature: 72°F , 22°C
Dew Point: 70°F , 21°C
Humidity: 94%
Barometer: 29.94 inHg , 1014 hPa
Clouds: Overcast
Visibility: 6 miles , 10 km
Cloud details: Overcast 1600 ft
2018/10/23 13:00 SEMT 231300Z 21006KT 9999 OVC016 22/21 Q1014 RMK A2997

Metar display script from Saratoga-Weather.org

 NOTAMS

NOTAMFecha



Fly Ecuador Virtual 2018 | System by VAM